Guilford, Kansas
Current Conditions -  °F | °C
As of 12:52 AM on Monday 24 Nov 2014 (Local Time) from KCNU Reporting Station
Clear Clear  
Wind Chill:   Ceiling: Unl
Heat Index:   Visibility: 10mi
Dew Point:   Wind: 15mph
Humidity: 73%   Direction: 300°WNW
Pressure: 29.63"   Gusts: 22mph
Location:  37.5152°N, 95.6341°W
Report Text: KCNU 240652Z AUTO 30013G19KT 10SM CLR 06/01 A2963 RMK AO2 SLP032 T00560011
Loading
Personal Weather Stations






























Interactive Weather Map New forecast layout! Learn more

10-Day Weather Forecast

Advertisements
Track Severe Weather on mobile